createdAt,value
2023-04-10T00:03:32.289Z,42.98
2023-04-10T00:08:34.166Z,42.99
2023-04-10T00:13:36.018Z,43.51
2023-04-10T00:18:37.939Z,45.39
2023-04-10T00:23:39.900Z,46.24
2023-04-10T00:28:41.713Z,46.15
2023-04-10T00:33:43.536Z,45.81
2023-04-10T00:38:45.438Z,45.63
2023-04-10T00:43:47.270Z,45.85
2023-04-10T00:48:49.305Z,45.73
2023-04-10T00:53:51.844Z,45.94
2023-04-10T00:58:53.948Z,46.37
2023-04-10T01:03:56.047Z,46.83
2023-04-10T01:09:25.512Z,46.91
2023-04-10T01:14:42.809Z,46.57
2023-04-10T01:20:09.256Z,47.55
2023-04-10T01:25:35.546Z,47.94
2023-04-10T01:30:37.484Z,47.25
2023-04-10T01:35:40.093Z,47.58
2023-04-10T01:40:41.964Z,47.60
2023-04-10T01:45:43.884Z,47.70
2023-04-10T01:50:46.513Z,47.94
2023-04-10T01:55:48.114Z,49.30
2023-04-10T02:00:49.971Z,48.59
2023-04-10T02:06:17.835Z,49.22
2023-04-10T02:11:30.367Z,50.31
2023-04-10T02:16:32.367Z,51.64
2023-04-10T02:21:34.292Z,52.37
2023-04-10T02:26:46.118Z,51.70
2023-04-10T02:31:47.992Z,52.60
2023-04-10T02:36:49.923Z,53.98
2023-04-10T02:41:51.786Z,53.42
2023-04-10T02:46:53.626Z,53.17
2023-04-10T02:51:55.474Z,53.23
2023-04-10T02:56:57.445Z,53.20
2023-04-10T03:01:59.646Z,53.45
2023-04-10T03:07:01.525Z,53.43
2023-04-10T03:12:03.522Z,53.88
2023-04-10T03:17:05.343Z,53.90
2023-04-10T03:22:07.183Z,53.49
2023-04-10T03:27:09.071Z,53.56
2023-04-10T03:32:10.908Z,52.19
2023-04-10T03:37:12.724Z,51.89
2023-04-10T03:42:14.617Z,49.72
2023-04-10T03:47:16.468Z,45.54
2023-04-10T03:52:18.385Z,45.10
2023-04-10T03:57:20.370Z,46.02
2023-04-10T04:02:22.354Z,46.15
2023-04-10T04:07:24.360Z,46.07
2023-04-10T04:12:26.539Z,45.28
2023-04-10T04:17:28.400Z,44.73
2023-04-10T04:22:30.251Z,44.04
2023-04-10T04:27:32.101Z,43.78
2023-04-10T04:32:33.976Z,43.81
2023-04-10T04:37:35.963Z,43.60
2023-04-10T04:42:37.845Z,42.82
2023-04-10T04:47:39.673Z,42.51
2023-04-10T04:52:41.628Z,42.44
2023-04-10T04:57:43.506Z,42.49
2023-04-10T05:02:45.498Z,41.45
2023-04-10T05:07:47.450Z,40.76
2023-04-10T05:12:49.272Z,39.43
2023-04-10T05:17:51.211Z,38.86
2023-04-10T05:22:53.115Z,38.38
2023-04-10T05:27:54.982Z,37.57
2023-04-10T05:32:56.832Z,37.36
2023-04-10T05:37:58.647Z,37.27
2023-04-10T05:43:00.478Z,33.69
2023-04-10T05:48:02.368Z,33.82
2023-04-10T05:53:04.393Z,32.79
2023-04-10T05:58:06.282Z,33.44
2023-04-10T06:03:08.170Z,32.59
2023-04-10T06:08:10.230Z,34.30
2023-04-10T06:13:12.164Z,33.00
2023-04-10T06:18:14.122Z,30.56
2023-04-10T06:23:16.010Z,30.15
2023-04-10T06:28:17.876Z,33.36
2023-04-10T06:33:19.949Z,30.11
2023-04-10T06:38:21.878Z,25.73
2023-04-10T06:43:23.721Z,23.20
2023-04-10T06:48:25.526Z,23.09
2023-04-10T06:53:27.513Z,26.02
2023-04-10T06:58:30.157Z,27.00
2023-04-10T07:03:32.678Z,29.13
2023-04-10T07:08:34.650Z,31.37
2023-04-10T07:13:36.899Z,32.25
2023-04-10T07:18:38.963Z,28.79
2023-04-10T07:23:40.832Z,23.63
2023-04-10T07:28:42.672Z,23.75
2023-04-10T07:33:47.413Z,19.93
2023-04-10T07:38:49.324Z,17.27
2023-04-10T07:43:51.135Z,15.95
2023-04-10T07:48:53.598Z,19.90
2023-04-10T07:53:55.520Z,24.12
2023-04-10T07:58:59.694Z,25.05
2023-04-10T08:04:04.776Z,25.57
2023-04-10T08:09:07.539Z,26.34
2023-04-10T08:14:09.293Z,27.18
2023-04-10T08:19:11.088Z,29.21
2023-04-10T08:24:13.046Z,29.36
2023-04-10T08:29:14.608Z,29.00
2023-04-10T08:34:16.810Z,29.33
2023-04-10T08:39:19.261Z,29.69
2023-04-10T08:44:21.491Z,29.11
2023-04-10T08:49:59.795Z,28.93
2023-04-10T08:55:04.983Z,29.45
2023-04-10T09:00:20.147Z,30.10
2023-04-10T09:05:26.825Z,30.66
2023-04-10T09:10:28.851Z,31.32
2023-04-10T09:15:30.728Z,31.66
2023-04-10T09:20:32.761Z,32.19
2023-04-10T09:25:36.401Z,32.50
2023-04-10T09:30:39.754Z,33.20
2023-04-10T09:35:41.711Z,32.30
2023-04-10T09:40:44.171Z,32.57
2023-04-10T09:45:50.853Z,33.37
2023-04-10T09:50:52.721Z,33.98
2023-04-10T09:55:54.635Z,34.17
2023-04-10T10:00:56.857Z,34.18
2023-04-10T10:05:58.555Z,34.57
2023-04-10T10:11:00.507Z,34.07
2023-04-10T10:16:21.523Z,34.04
2023-04-10T10:21:23.594Z,34.04
2023-04-10T10:26:25.389Z,34.73
2023-04-10T10:31:27.349Z,34.64
2023-04-10T10:36:29.271Z,34.06
2023-04-10T10:41:43.777Z,33.25
2023-04-10T10:46:52.320Z,33.90
2023-04-10T10:51:54.298Z,32.71
2023-04-10T10:56:56.179Z,32.91
2023-04-10T11:02:14.032Z,32.44
2023-04-10T11:07:16.280Z,34.33
2023-04-10T11:12:19.867Z,36.41
2023-04-10T11:18:06.864Z,37.16
2023-04-10T11:23:12.757Z,38.71
2023-04-10T11:28:43.627Z,38.71
2023-04-10T11:33:49.289Z,39.50
2023-04-10T11:38:54.854Z,40.30
2023-04-10T11:44:01.057Z,39.90
2023-04-10T11:49:04.134Z,42.74
2023-04-10T11:54:10.419Z,42.99
2023-04-10T11:59:12.410Z,45.12
2023-04-10T12:04:18.370Z,45.49
2023-04-10T12:09:21.152Z,46.29
2023-04-10T12:14:23.308Z,45.90
2023-04-10T12:19:25.278Z,45.44
2023-04-10T12:24:47.116Z,44.70
2023-04-10T12:29:50.842Z,43.87
2023-04-10T12:34:52.962Z,43.74
2023-04-10T12:40:05.970Z,43.62
2023-04-10T12:45:08.371Z,43.84
2023-04-10T12:50:11.730Z,43.20
2023-04-10T12:55:17.732Z,42.86
2023-04-10T13:00:19.730Z,42.56
2023-04-10T13:05:21.625Z,42.62
2023-04-10T13:10:23.534Z,42.07
2023-04-10T13:15:25.374Z,41.67
2023-04-10T13:20:27.238Z,40.95
2023-04-10T13:25:30.437Z,41.22
2023-04-10T13:30:33.003Z,41.91
2023-04-10T13:35:35.031Z,41.01
2023-04-10T13:40:37.091Z,39.91
2023-04-10T13:45:39.088Z,39.82
2023-04-10T13:50:42.354Z,39.78
2023-04-10T13:55:45.150Z,40.21
2023-04-10T14:00:46.982Z,41.20
2023-04-10T14:05:48.859Z,42.18
2023-04-10T14:10:50.839Z,43.14
2023-04-10T14:15:52.727Z,44.94
2023-04-10T14:20:55.355Z,45.36
2023-04-10T14:25:57.261Z,46.15
2023-04-10T14:30:59.113Z,46.50
2023-04-10T14:36:01.173Z,47.33
2023-04-10T14:41:03.257Z,47.99
2023-04-10T14:46:05.702Z,48.15
2023-04-10T14:51:10.324Z,48.21
2023-04-10T14:56:13.718Z,47.88
2023-04-10T15:01:16.550Z,48.05
2023-04-10T15:06:18.527Z,47.55
2023-04-10T15:11:20.447Z,47.63
2023-04-10T15:16:22.401Z,48.48
2023-04-10T15:21:24.320Z,47.81
2023-04-10T15:26:26.214Z,47.82
2023-04-10T15:31:29.085Z,47.79
2023-04-10T15:36:30.977Z,47.58
2023-04-10T15:41:32.815Z,47.77
2023-04-10T15:46:34.788Z,47.56
2023-04-10T15:51:36.688Z,47.55
2023-04-10T15:56:38.584Z,48.33
2023-04-10T16:01:40.692Z,48.05
2023-04-10T16:06:42.698Z,48.33
2023-04-10T16:11:44.681Z,48.65
2023-04-10T16:16:46.900Z,48.17
2023-04-10T16:21:48.772Z,47.92
2023-04-10T16:26:51.067Z,48.11
2023-04-10T16:31:53.327Z,48.09
2023-04-10T16:36:55.211Z,48.14
2023-04-10T16:41:57.333Z,48.33
2023-04-10T16:46:59.568Z,48.71
2023-04-10T16:52:01.492Z,48.95
2023-04-10T16:57:03.797Z,49.19
2023-04-10T17:02:06.019Z,49.54
2023-04-10T17:07:08.002Z,49.89
2023-04-10T17:12:09.909Z,50.20
2023-04-10T17:17:11.877Z,50.43
2023-04-10T17:22:13.831Z,50.73
2023-04-10T17:27:15.689Z,51.04
2023-04-10T17:32:17.541Z,51.42
2023-04-10T17:37:19.708Z,51.83
2023-04-10T17:42:21.642Z,51.98
2023-04-10T17:47:23.518Z,52.13
2023-04-10T17:52:25.409Z,52.34
2023-04-10T17:57:27.234Z,52.66
2023-04-10T18:02:29.183Z,53.20
2023-04-10T18:07:31.139Z,53.69
2023-04-10T18:12:33.147Z,53.90
2023-04-10T18:17:36.331Z,54.03
2023-04-10T18:22:39.937Z,54.12
2023-04-10T18:27:45.521Z,54.32
2023-04-10T18:32:54.448Z,54.37
2023-04-10T18:37:56.349Z,54.66
2023-04-10T18:42:58.247Z,54.75
2023-04-10T18:48:00.181Z,54.70
2023-04-10T18:53:02.096Z,54.87
2023-04-10T18:58:03.915Z,55.34
2023-04-10T19:03:06.073Z,55.65
2023-04-10T19:08:08.189Z,55.96
2023-04-10T19:13:10.708Z,56.06
2023-04-10T19:18:13.998Z,56.18
2023-04-10T19:23:17.620Z,56.27
2023-04-10T19:28:19.654Z,56.49
2023-04-10T19:33:21.528Z,56.63
2023-04-10T19:38:23.468Z,56.61
2023-04-10T19:43:25.529Z,56.39
2023-04-10T19:48:27.513Z,56.39
2023-04-10T19:53:29.449Z,56.42
2023-04-10T20:03:38.064Z,56.63
2023-04-10T20:08:40.211Z,56.35
2023-04-10T20:13:42.106Z,56.43
2023-04-10T20:18:44.000Z,56.30
2023-04-10T20:23:45.876Z,56.08
2023-04-10T20:28:47.826Z,56.14
2023-04-10T20:33:49.806Z,56.44
2023-04-10T20:38:51.793Z,56.48
2023-04-10T20:43:53.919Z,57.00
2023-04-10T20:48:56.020Z,56.87
2023-04-10T20:53:58.117Z,57.36
2023-04-10T20:59:00.070Z,57.20
2023-04-10T21:04:02.121Z,56.87
2023-04-10T21:09:04.145Z,57.00
2023-04-10T21:14:06.073Z,57.13
2023-04-10T21:19:11.026Z,57.37
2023-04-10T21:24:12.969Z,57.78
2023-04-10T21:29:14.884Z,57.71
2023-04-10T21:34:16.773Z,57.96
2023-04-10T21:39:18.646Z,57.48
2023-04-10T21:44:20.505Z,57.30
2023-04-10T21:49:22.371Z,57.25
2023-04-10T21:54:24.333Z,56.93
2023-04-10T21:59:26.251Z,56.58
2023-04-10T22:04:28.077Z,56.52
2023-04-10T22:09:29.948Z,56.21
2023-04-10T22:14:31.877Z,56.42
2023-04-10T22:19:33.752Z,56.48
2023-04-10T22:24:35.569Z,56.76
2023-04-10T22:29:37.498Z,56.66
2023-04-10T22:34:39.404Z,56.78
2023-04-10T22:39:41.292Z,56.42
2023-04-10T22:44:44.787Z,56.45
2023-04-10T22:49:46.910Z,56.68
2023-04-10T22:54:48.849Z,56.96
2023-04-10T22:59:50.879Z,56.97
2023-04-10T23:04:52.885Z,57.34
2023-04-10T23:09:54.782Z,57.61
2023-04-10T23:14:56.708Z,58.78
2023-04-10T23:19:58.587Z,59.60
2023-04-10T23:25:00.528Z,60.71
2023-04-10T23:30:02.412Z,61.44
2023-04-10T23:35:06.127Z,62.34
2023-04-10T23:40:08.710Z,62.89
2023-04-10T23:45:10.634Z,63.54
2023-04-10T23:50:12.466Z,63.30
2023-04-10T23:55:14.416Z,63.15
